Time;durP1;ratioP1;P1;durP2;ratioP2;P2;SDS_P1;SDS_P2;PMS_P1;PMS_P2;Temp;Humidity;BMP_temperature;BMP_pressure;BME280_temperature;BME280_humidity;BME280_pressure;Samples;Min_cycle;Max_cycle;Signal;HPM_P1;HPM_P2
2021/01/06 00:00:26;;;;;;;0.50;0.50;;;4.70;99.90;;;;;;4430273;32;20068;-57
2021/01/06 00:02:52;;;;;;;1.50;0.60;;;4.80;99.90;;;;;;4429503;32;20076;-58
2021/01/06 00:05:21;;;;;;;0.37;0.37;;;4.70;99.90;;;;;;4429762;32;20062;-58
2021/01/06 00:07:47;;;;;;;2.62;1.15;;;4.70;99.90;;;;;;4443864;32;20498;-59
2021/01/06 00:10:20;;;;;;;0.52;0.50;;;4.80;99.90;;;;;;4445088;32;20129;-57
2021/01/06 00:12:46;;;;;;;0.40;0.40;;;4.80;99.90;;;;;;4429045;32;20061;-57
2021/01/06 00:15:16;;;;;;;0.30;0.30;;;4.70;99.90;;;;;;4431193;32;20081;-57
2021/01/06 00:17:42;;;;;;;0.28;0.28;;;4.70;99.90;;;;;;4440036;32;20616;-55
2021/01/06 00:20:10;;;;;;;0.43;0.43;;;4.60;99.90;;;;;;4444208;32;20060;-59
2021/01/06 00:22:36;;;;;;;0.30;0.30;;;4.70;99.90;;;;;;4444778;32;20435;-57
2021/01/06 00:25:02;;;;;;;0.57;0.57;;;4.80;99.90;;;;;;4445438;32;20073;-54
2021/01/06 00:27:27;;;;;;;0.40;0.40;;;4.80;99.90;;;;;;4445081;32;20085;-56
2021/01/06 00:29:53;;;;;;;0.32;0.32;;;4.80;99.90;;;;;;4444322;32;20135;-57
2021/01/06 00:32:19;;;;;;;0.35;0.35;;;4.70;99.90;;;;;;4445694;32;20072;-58
2021/01/06 00:34:46;;;;;;;0.77;0.50;;;4.70;99.90;;;;;;4445076;32;20064;-58
2021/01/06 00:37:13;;;;;;;0.30;0.30;;;4.70;99.90;;;;;;4445576;32;20069;-56
2021/01/06 00:39:39;;;;;;;0.50;0.50;;;4.80;99.90;;;;;;4444876;32;20069;-58
2021/01/06 00:42:04;;;;;;;0.40;0.40;;;4.80;99.90;;;;;;4445385;32;20081;-57
2021/01/06 00:44:30;;;;;;;0.40;0.40;;;4.80;99.90;;;;;;4445335;32;20084;-59
2021/01/06 00:46:55;;;;;;;0.37;0.37;;;4.80;99.90;;;;;;4445080;32;20081;-59
2021/01/06 00:49:21;;;;;;;0.50;0.50;;;4.80;99.90;;;;;;4445309;32;20348;-56
2021/01/06 00:51:49;;;;;;;0.45;0.45;;;4.80;99.90;;;;;;4444223;32;20061;-57
2021/01/06 00:54:15;;;;;;;0.47;0.47;;;4.80;99.90;;;;;;4444556;32;20068;-58
2021/01/06 00:56:40;;;;;;;0.43;0.43;;;4.80;99.90;;;;;;4443576;32;20120;-58
2021/01/06 00:59:06;;;;;;;0.40;0.40;;;4.80;99.90;;;;;;4444848;32;20065;-54
2021/01/06 01:01:31;;;;;;;0.30;0.30;;;4.70;99.90;;;;;;4444975;32;20078;-57
2021/01/06 01:03:57;;;;;;;0.52;0.52;;;4.70;99.90;;;;;;4444850;32;20064;-57
2021/01/06 01:06:26;;;;;;;1.30;1.15;;;4.80;99.90;;;;;;4438872;32;20065;-58
2021/01/06 01:08:52;;;;;;;0.32;0.32;;;4.90;99.90;;;;;;4428353;32;20065;-59
2021/01/06 01:11:18;;;;;;;0.30;0.30;;;4.90;99.90;;;;;;4435232;32;20412;-58
2021/01/06 01:13:43;;;;;;;0.30;0.30;;;4.90;99.90;;;;;;4445025;32;20065;-58
2021/01/06 01:16:09;;;;;;;1.75;0.62;;;5.00;99.90;;;;;;4446919;32;20096;-59
2021/01/06 01:18:34;;;;;;;0.30;0.30;;;4.90;99.90;;;;;;4436943;32;20065;-58
2021/01/06 01:20:59;;;;;;;0.47;0.47;;;4.80;99.90;;;;;;4431773;32;20065;-59
2021/01/06 01:23:27;;;;;;;0.50;0.50;;;4.70;99.90;;;;;;4431690;32;20564;-57
2021/01/06 01:25:54;;;;;;;0.30;0.30;;;4.70;99.90;;;;;;4418078;32;20129;-58
2021/01/06 01:28:21;;;;;;;0.30;0.30;;;4.70;99.90;;;;;;4431432;32;20128;-58
2021/01/06 01:30:48;;;;;;;0.70;0.70;;;4.70;99.90;;;;;;4431033;32;20119;-55
2021/01/06 01:33:15;;;;;;;0.40;0.40;;;4.70;99.90;;;;;;4431930;32;20526;-58
2021/01/06 01:35:40;;;;;;;0.40;0.40;;;4.70;99.90;;;;;;4429891;32;20098;-55
2021/01/06 01:38:07;;;;;;;0.30;0.30;;;4.80;99.90;;;;;;4432159;32;20121;-58
2021/01/06 01:40:38;;;;;;;0.30;0.30;;;4.70;99.90;;;;;;4418008;32;20077;-58
2021/01/06 01:43:19;;;;;;;;;;;4.70;99.90;;;;;;4430214;32;20518;-57
2021/01/06 01:45:47;;;;;;;0.68;0.68;;;4.70;99.90;;;;;;4430587;32;19993;-58
2021/01/06 01:48:38;;;;;;;0.20;0.20;;;4.70;99.90;;;;;;4430935;32;20094;-55
2021/01/06 01:51:07;;;;;;;;;;;4.70;99.90;;;;;;4430685;32;20066;-55
2021/01/06 01:53:38;;;;;;;0.40;0.40;;;4.60;99.90;;;;;;4429393;32;19950;-58
2021/01/06 01:56:04;;;;;;;;;;;4.60;99.90;;;;;;4431653;32;20073;-58
2021/01/06 01:58:33;;;;;;;0.30;0.30;;;4.60;99.90;;;;;;4431232;32;19951;-56
2021/01/06 02:01:00;;;;;;;0.30;0.30;;;4.60;99.90;;;;;;4430675;32;20077;-58
2021/01/06 02:03:31;;;;;;;1.02;0.60;;;4.60;99.90;;;;;;4417642;32;20085;-58
2021/01/06 02:06:00;;;;;;;;;;;4.60;99.90;;;;;;4434999;32;20448;-53
2021/01/06 02:08:36;;;;;;;0.50;0.50;;;4.60;99.90;;;;;;4446930;32;20353;-58
2021/01/06 02:11:06;;;;;;;0.32;0.32;;;4.60;99.90;;;;;;4440323;32;20098;-58
2021/01/06 02:13:38;;;;;;;0.43;0.43;;;4.70;99.90;;;;;;4430712;32;20100;-59
2021/01/06 02:16:28;;;;;;;0.30;0.30;;;4.70;99.90;;;;;;4430489;32;20065;-59
2021/01/06 02:18:53;;;;;;;0.22;0.22;;;4.70;99.90;;;;;;4441942;32;20116;-57
2021/01/06 02:21:22;;;;;;;0.30;0.30;;;4.70;99.90;;;;;;4445669;32;20189;-58
2021/01/06 02:23:50;;;;;;;0.30;0.30;;;4.70;99.90;;;;;;4446519;32;20065;-58
2021/01/06 02:26:18;;;;;;;0.40;0.40;;;4.70;99.90;;;;;;4443922;32;20084;-57
2021/01/06 02:28:45;;;;;;;0.20;0.20;;;4.70;99.90;;;;;;4446638;32;20489;-57
2021/01/06 02:31:11;;;;;;;0.30;0.30;;;4.70;99.90;;;;;;4432631;32;20065;-57
2021/01/06 02:33:37;;;;;;;0.30;0.30;;;4.60;99.90;;;;;;4446265;32;20481;-57
2021/01/06 02:36:04;;;;;;;0.30;0.30;;;4.70;99.90;;;;;;4447171;32;20547;-58
2021/01/06 02:38:29;;;;;;;0.40;0.40;;;4.70;99.90;;;;;;4444810;32;20064;-57
2021/01/06 02:40:56;;;;;;;0.20;0.20;;;4.70;99.90;;;;;;4444071;32;20479;-53
2021/01/06 02:43:23;;;;;;;0.30;0.30;;;4.70;99.90;;;;;;4444936;32;20388;-58
2021/01/06 02:45:49;;;;;;;0.30;0.30;;;4.60;99.90;;;;;;4446270;32;20069;-57
2021/01/06 02:48:16;;;;;;;0.30;0.30;;;4.60;99.90;;;;;;4446376;32;20169;-58
2021/01/06 02:50:44;;;;;;;0.40;0.40;;;4.60;99.90;;;;;;4446227;32;20125;-53
2021/01/06 02:53:12;;;;;;;0.30;0.30;;;4.60;99.90;;;;;;4445572;32;20456;-57
2021/01/06 02:55:39;;;;;;;0.80;0.40;;;4.50;99.90;;;;;;4444675;32;20080;-57
2021/01/06 02:58:09;;;;;;;0.50;0.50;;;4.50;99.90;;;;;;4444803;32;20458;-57
2021/01/06 03:00:35;;;;;;;14.32;1.50;;;4.40;99.90;;;;;;4445515;32;20093;-57
2021/01/06 03:03:07;;;;;;;0.40;0.40;;;4.50;99.90;;;;;;4431846;32;20065;-57
2021/01/06 03:05:38;;;;;;;0.30;0.30;;;4.50;99.90;;;;;;4444718;32;20133;-54
2021/01/06 03:08:06;;;;;;;0.98;0.43;;;4.40;99.90;;;;;;4429628;32;20073;-58
2021/01/06 03:10:31;;;;;;;0.30;0.30;;;4.40;99.90;;;;;;4430778;32;20077;-53
2021/01/06 03:12:57;;;;;;;0.75;0.60;;;4.50;99.90;;;;;;4446124;32;20108;-58
2021/01/06 03:15:26;;;;;;;0.65;0.65;;;4.40;99.90;;;;;;4445462;32;20069;-56
2021/01/06 03:17:53;;;;;;;0.60;0.60;;;4.50;99.90;;;;;;4440855;32;20068;-57
2021/01/06 03:20:32;;;;;;;0.20;0.20;;;4.60;99.90;;;;;;4416958;32;20069;-58
2021/01/06 03:23:13;;;;;;;0.30;0.30;;;4.60;99.90;;;;;;4430936;32;20077;-57
2021/01/06 03:25:41;;;;;;;0.30;0.30;;;4.50;99.90;;;;;;4429847;32;20064;-57
2021/01/06 03:28:09;;;;;;;1.95;0.50;;;4.50;99.90;;;;;;4430433;32;20515;-58
2021/01/06 03:30:35;;;;;;;0.30;0.30;;;4.40;99.90;;;;;;4430005;32;20057;-57
2021/01/06 03:33:16;;;;;;;0.30;0.30;;;4.40;99.90;;;;;;4430663;32;20383;-54
2021/01/06 03:35:44;;;;;;;0.30;0.30;;;4.40;99.90;;;;;;4430741;32;20100;-56
2021/01/06 03:38:26;;;;;;;2.17;0.95;;;4.30;99.90;;;;;;4431052;32;20086;-57
2021/01/06 03:40:53;;;;;;;0.30;0.30;;;4.20;99.90;;;;;;4430174;32;20069;-58
2021/01/06 03:43:20;;;;;;;0.30;0.30;;;4.30;99.90;;;;;;4430663;32;20498;-58
2021/01/06 03:45:50;;;;;;;0.30;0.30;;;4.30;99.90;;;;;;4430161;32;20428;-55
2021/01/06 03:48:24;;;;;;;0.40;0.40;;;4.30;99.90;;;;;;4429588;32;20537;-56
2021/01/06 03:50:51;;;;;;;0.30;0.30;;;4.20;99.90;;;;;;4429150;32;20502;-57
2021/01/06 03:53:34;;;;;;;0.30;0.30;;;4.20;99.90;;;;;;4416286;32;20069;-58
2021/01/06 03:56:05;;;;;;;0.30;0.30;;;4.20;99.90;;;;;;4417075;32;20120;-56
2021/01/06 03:58:41;;;;;;;;;;;4.20;99.90;;;;;;4430438;32;20065;-57
2021/01/06 04:01:31;;;;;;;0.30;0.30;;;4.20;99.90;;;;;;4430244;32;19963;-56
2021/01/06 04:04:04;;;;;;;2.30;0.70;;;4.10;99.90;;;;;;4428421;32;20396;-57
2021/01/06 04:06:34;;;;;;;0.30;0.30;;;4.10;99.90;;;;;;4436330;32;20093;-57
2021/01/06 04:09:04;;;;;;;0.30;0.30;;;4.10;99.90;;;;;;4431639;32;20560;-57
2021/01/06 04:11:35;;;;;;;0.30;0.30;;;4.10;99.90;;;;;;4437445;32;20061;-58
2021/01/06 04:14:00;;;;;;;0.30;0.30;;;4.10;99.90;;;;;;4416501;32;20077;-57
2021/01/06 04:16:27;;;;;;;0.30;0.30;;;4.10;99.90;;;;;;4429991;32;20065;-58
2021/01/06 04:18:52;;;;;;;0.30;0.30;;;4.00;99.90;;;;;;4429058;32;20078;-59
2021/01/06 04:21:19;;;;;;;0.30;0.30;;;4.00;99.90;;;;;;4428033;32;20077;-58
2021/01/06 04:23:44;;;;;;;0.30;0.30;;;4.00;99.90;;;;;;4427864;32;20168;-58
2021/01/06 04:26:14;;;;;;;0.30;0.30;;;4.00;99.90;;;;;;4430463;32;20514;-58
2021/01/06 04:28:40;;;;;;;0.30;0.30;;;4.00;99.90;;;;;;4430534;32;20736;-57
2021/01/06 04:31:09;;;;;;;0.22;0.22;;;4.00;99.90;;;;;;4428921;32;20514;-58
2021/01/06 04:33:38;;;;;;;0.30;0.30;;;4.00;99.90;;;;;;4415626;32;20341;-57
2021/01/06 04:36:07;;;;;;;0.30;0.30;;;4.00;99.90;;;;;;4416370;32;20061;-58
2021/01/06 04:38:37;;;;;;;0.30;0.30;;;4.00;99.90;;;;;;4428024;32;20061;-57
2021/01/06 04:41:39;;;;;;;0.22;0.22;;;4.00;99.90;;;;;;4414355;32;20086;-54
2021/01/06 04:44:32;;;;;;;0.30;0.30;;;4.00;99.90;;;;;;4427938;32;20108;-54
2021/01/06 04:47:31;;;;;;;0.30;0.30;;;4.00;99.90;;;;;;4418391;32;20424;-58
2021/01/06 04:50:29;;;;;;;0.30;0.30;;;3.90;99.90;;;;;;4417704;32;20081;-55
2021/01/06 04:53:26;;;;;;;0.30;0.30;;;3.90;99.90;;;;;;4419244;32;20088;-56
2021/01/06 04:56:09;;;;;;;0.22;0.22;;;4.00;99.90;;;;;;4428491;32;20421;-58
2021/01/06 04:58:46;;;;;;;0.30;0.30;;;4.00;99.90;;;;;;4428230;32;20056;-58
2021/01/06 05:01:35;;;;;;;0.30;0.30;;;3.90;99.90;;;;;;4428834;32;20058;-58
2021/01/06 05:04:13;;;;;;;0.28;0.28;;;3.80;99.90;;;;;;4429904;32;20069;-53
2021/01/06 05:07:03;;;;;;;0.30;0.30;;;3.80;99.90;;;;;;4437069;32;20458;-56
2021/01/06 05:09:39;;;;;;;0.30;0.30;;;3.80;99.90;;;;;;4444082;32;20076;-58
2021/01/06 05:12:26;;;;;;;0.35;0.35;;;3.80;99.90;;;;;;4432877;32;20095;-58
2021/01/06 05:15:02;;;;;;;0.50;0.50;;;3.80;99.90;;;;;;4429257;32;20069;-57
2021/01/06 05:17:28;;;;;;;0.52;0.52;;;3.90;99.90;;;;;;4429585;32;20062;-58
2021/01/06 05:19:53;;;;;;;0.30;0.30;;;4.00;99.90;;;;;;4429923;32;20064;-58
2021/01/06 05:22:19;;;;;;;0.30;0.30;;;3.90;99.90;;;;;;4428069;32;20061;-56
2021/01/06 05:24:47;;;;;;;0.30;0.30;;;3.90;99.90;;;;;;4429685;32;20141;-56
2021/01/06 05:27:15;;;;;;;0.30;0.30;;;4.00;99.90;;;;;;4429329;32;20078;-57
2021/01/06 05:29:43;;;;;;;0.30;0.30;;;3.90;99.90;;;;;;4430227;32;20090;-57
2021/01/06 05:32:39;;;;;;;0.20;0.20;;;3.80;99.90;;;;;;4428621;32;20124;-56
2021/01/06 05:35:09;;;;;;;0.25;0.25;;;3.80;99.90;;;;;;4418306;32;20084;-57
2021/01/06 05:37:35;;;;;;;0.30;0.30;;;3.80;99.90;;;;;;4427502;32;20078;-58
2021/01/06 05:40:07;;;;;;;0.30;0.30;;;3.80;99.90;;;;;;4427388;32;20143;-57
2021/01/06 05:42:35;;;;;;;0.30;0.30;;;3.70;99.90;;;;;;4414848;32;20065;-57
2021/01/06 05:45:04;;;;;;;0.30;0.30;;;3.70;99.90;;;;;;4415979;32;20064;-57
2021/01/06 05:47:42;;;;;;;0.30;0.30;;;3.70;99.90;;;;;;4414906;32;20061;-58
2021/01/06 05:50:14;;;;;;;0.30;0.30;;;3.70;99.90;;;;;;4429679;32;20124;-57
2021/01/06 05:52:40;;;;;;;0.30;0.30;;;3.70;99.90;;;;;;4427624;32;20057;-57
2021/01/06 05:55:15;;;;;;;0.30;0.30;;;3.70;99.90;;;;;;4415173;32;20133;-57
2021/01/06 05:57:50;;;;;;;0.30;0.30;;;3.60;99.90;;;;;;4429620;32;20503;-56
2021/01/06 06:00:24;;;;;;;0.30;0.30;;;3.70;99.90;;;;;;4429551;32;20432;-58
2021/01/06 06:03:02;;;;;;;0.30;0.30;;;3.70;99.90;;;;;;4433900;32;20130;-54
2021/01/06 06:05:44;;;;;;;0.30;0.30;;;3.70;99.90;;;;;;4446744;32;20447;-58
2021/01/06 06:08:32;;;;;;;0.30;0.30;;;3.60;99.90;;;;;;4444242;32;20049;-58
2021/01/06 06:11:29;;;;;;;0.30;0.30;;;3.60;99.90;;;;;;4431475;32;20057;-58
2021/01/06 06:14:34;;;;;;;0.30;0.30;;;3.70;99.90;;;;;;4430098;32;20069;-56
2021/01/06 06:17:21;;;;;;;0.30;0.30;;;3.70;99.90;;;;;;4434518;32;20485;-58
2021/01/06 06:20:15;;;;;;;0.70;0.70;;;3.70;99.90;;;;;;4446084;32;20057;-57
2021/01/06 06:22:56;;;;;;;0.30;0.30;;;3.70;99.90;;;;;;4434985;32;20065;-57
2021/01/06 06:25:32;;;;;;;0.50;0.50;;;3.60;99.90;;;;;;4446004;32;20080;-56
2021/01/06 06:28:16;;;;;;;0.30;0.30;;;3.60;99.90;;;;;;4445875;32;20076;-54
2021/01/06 06:30:54;;;;;;;0.20;0.20;;;3.50;99.90;;;;;;4445081;32;20073;-57
2021/01/06 06:33:27;;;;;;;0.20;0.20;;;3.50;99.90;;;;;;4445609;32;20330;-57
2021/01/06 06:35:55;;;;;;;0.30;0.30;;;3.40;99.90;;;;;;4446049;32;20392;-57
2021/01/06 06:38:35;;;;;;;0.30;0.30;;;3.50;99.90;;;;;;4445798;32;20081;-58
2021/01/06 06:41:05;;;;;;;0.40;0.40;;;3.50;99.90;;;;;;4446685;32;20089;-57
2021/01/06 06:43:35;;;;;;;0.40;0.40;;;3.40;99.90;;;;;;4444854;32;20086;-58
2021/01/06 06:46:35;;;;;;;0.30;0.30;;;3.50;99.90;;;;;;4444471;32;20073;-58
2021/01/06 06:49:25;;;;;;;0.30;0.30;;;3.50;99.90;;;;;;4444664;32;20069;-57
2021/01/06 06:52:16;;;;;;;0.30;0.30;;;3.50;99.90;;;;;;4445742;32;20065;-59
2021/01/06 06:55:11;;;;;;;0.30;0.30;;;3.40;99.90;;;;;;4432872;32;20058;-59
2021/01/06 06:57:51;;;;;;;0.30;0.30;;;3.40;99.90;;;;;;4430706;32;20061;-55
2021/01/06 07:00:21;;;;;;;0.30;0.30;;;3.40;99.90;;;;;;4430909;32;20069;-58
2021/01/06 07:02:50;;;;;;;0.20;0.20;;;3.40;99.90;;;;;;4439427;32;20127;-56
2021/01/06 07:05:27;;;;;;;0.20;0.20;;;3.40;99.90;;;;;;4433429;32;20619;-58
2021/01/06 07:07:53;;;;;;;0.35;0.35;;;3.40;99.90;;;;;;4433824;32;20134;-58
2021/01/06 07:10:23;;;;;;;0.30;0.30;;;3.40;99.90;;;;;;4445928;32;20477;-59
2021/01/06 07:12:51;;;;;;;0.30;0.30;;;3.40;99.90;;;;;;4428633;32;20069;-57
2021/01/06 07:15:31;;;;;;;0.30;0.30;;;3.40;99.90;;;;;;4430523;32;20061;-57
2021/01/06 07:17:57;;;;;;;0.35;0.35;;;3.40;99.90;;;;;;4430561;32;20056;-55
2021/01/06 07:20:36;;;;;;;0.20;0.20;;;3.50;99.90;;;;;;4431593;32;20076;-59
2021/01/06 07:23:11;;;;;;;0.30;0.30;;;3.40;99.90;;;;;;4444142;32;20069;-57
2021/01/06 07:25:41;;;;;;;0.22;0.22;;;3.40;99.90;;;;;;4436094;32;20089;-56
2021/01/06 07:28:14;;;;;;;0.45;0.40;;;3.40;99.90;;;;;;4441867;32;20428;-59
2021/01/06 07:30:44;;;;;;;0.55;0.55;;;3.50;99.90;;;;;;4445195;32;20085;-57
2021/01/06 07:33:20;;;;;;;0.50;0.50;;;3.40;99.90;;;;;;4439795;32;20061;-57
2021/01/06 07:35:46;;;;;;;0.40;0.40;;;3.30;99.90;;;;;;4430045;32;20416;-56
2021/01/06 07:38:12;;;;;;;0.30;0.30;;;3.30;99.90;;;;;;4429872;32;20388;-57
2021/01/06 07:40:41;;;;;;;0.30;0.30;;;3.30;99.90;;;;;;4430864;32;20195;-58
2021/01/06 07:43:08;;;;;;;0.30;0.30;;;3.40;99.90;;;;;;4430007;32;20077;-59
2021/01/06 07:45:40;;;;;;;0.30;0.30;;;3.30;99.90;;;;;;4429739;32;20072;-56
2021/01/06 07:48:37;;;;;;;0.40;0.40;;;3.30;99.90;;;;;;4429846;32;20053;-57
2021/01/06 07:51:17;;;;;;;0.20;0.20;;;3.40;99.90;;;;;;4418757;32;20065;-57
2021/01/06 07:53:47;;;;;;;0.35;0.35;;;3.30;99.90;;;;;;4436508;32;20076;-57
2021/01/06 07:56:26;;;;;;;0.30;0.30;;;3.40;99.90;;;;;;4437743;32;20593;-58
2021/01/06 07:58:55;;;;;;;0.30;0.30;;;3.40;99.90;;;;;;4445641;32;20116;-58
2021/01/06 08:01:33;;;;;;;0.30;0.30;;;3.40;99.90;;;;;;4423980;32;20117;-58
2021/01/06 08:04:08;;;;;;;0.30;0.30;;;3.30;99.90;;;;;;4430278;32;20116;-58
2021/01/06 08:06:40;;;;;;;0.30;0.30;;;3.30;99.90;;;;;;4431112;32;20080;-57
2021/01/06 08:09:05;;;;;;;0.20;0.20;;;3.30;99.90;;;;;;4444785;32;20534;-59
2021/01/06 08:11:31;;;;;;;0.35;0.35;;;3.30;99.90;;;;;;4437861;32;20073;-57
2021/01/06 08:14:01;;;;;;;0.30;0.30;;;3.40;99.90;;;;;;4429065;32;20089;-59
2021/01/06 08:16:30;;;;;;;0.40;0.40;;;3.30;99.90;;;;;;4430644;32;20547;-57
2021/01/06 08:19:10;;;;;;;0.37;0.37;;;3.30;99.90;;;;;;4436763;32;20085;-58
2021/01/06 08:21:46;;;;;;;0.40;0.40;;;3.20;99.90;;;;;;4428315;32;20057;-59
2021/01/06 08:24:21;;;;;;;0.30;0.30;;;3.20;99.90;;;;;;4435501;32;20131;-58
2021/01/06 08:26:57;;;;;;;0.20;0.20;;;3.30;99.90;;;;;;4445845;32;20110;-58
2021/01/06 08:29:39;;;;;;;0.30;0.30;;;3.30;99.90;;;;;;4436366;32;20052;-59
2021/01/06 08:32:22;;;;;;;0.30;0.30;;;3.20;99.90;;;;;;4444033;32;20060;-56
2021/01/06 08:35:14;;;;;;;1.00;0.75;;;3.30;99.90;;;;;;4433664;32;20073;-58
2021/01/06 08:37:40;;;;;;;0.30;0.30;;;3.20;99.90;;;;;;4428658;32;20068;-58
2021/01/06 08:40:24;;;;;;;0.43;0.43;;;3.20;99.90;;;;;;4431885;32;20081;-57
2021/01/06 08:42:50;;;;;;;0.30;0.30;;;3.10;99.90;;;;;;4441386;32;111269;-61
2021/01/06 08:45:22;;;;;;;0.40;0.40;;;3.20;99.90;;;;;;4431082;32;20094;-59
2021/01/06 08:47:48;;;;;;;0.30;0.30;;;3.20;99.90;;;;;;4430016;32;20412;-59
2021/01/06 08:50:27;;;;;;;0.30;0.30;;;3.10;99.90;;;;;;4441461;32;20065;-59
2021/01/06 08:52:59;;;;;;;0.32;0.32;;;3.10;99.90;;;;;;4432517;32;20115;-59
2021/01/06 08:55:29;;;;;;;0.30;0.30;;;3.20;99.90;;;;;;4437576;32;20065;-59
2021/01/06 08:57:59;;;;;;;0.40;0.40;;;3.20;99.90;;;;;;4427750;32;20085;-59
2021/01/06 09:00:32;;;;;;;0.30;0.30;;;3.10;99.90;;;;;;4441509;32;20060;-59
2021/01/06 09:03:17;;;;;;;0.40;0.40;;;3.10;99.90;;;;;;4443278;32;20072;-57
2021/01/06 09:06:11;;;;;;;0.30;0.30;;;3.20;99.90;;;;;;4431469;32;20081;-57
2021/01/06 09:08:39;;;;;;;0.22;0.22;;;3.30;99.90;;;;;;4442993;32;20069;-58
2021/01/06 09:11:13;;;;;;;0.30;0.30;;;3.20;99.90;;;;;;4438546;32;20086;-57
2021/01/06 09:14:07;;;;;;;0.28;0.28;;;3.10;99.90;;;;;;4438334;32;20080;-59
2021/01/06 09:16:46;;;;;;;0.30;0.30;;;3.20;99.90;;;;;;4428822;32;20069;-58
2021/01/06 09:19:24;;;;;;;0.40;0.40;;;3.20;99.90;;;;;;4431327;32;20077;-58
2021/01/06 09:21:50;;;;;;;0.40;0.40;;;3.20;99.90;;;;;;4428821;32;20418;-59
2021/01/06 09:24:22;;;;;;;0.30;0.30;;;3.20;99.90;;;;;;4428996;32;20073;-59
2021/01/06 09:27:01;;;;;;;0.30;0.30;;;3.30;99.90;;;;;;4417239;32;20074;-58
2021/01/06 09:29:28;;;;;;;0.30;0.30;;;3.40;99.90;;;;;;4424073;32;20112;-60
2021/01/06 09:31:58;;;;;;;0.30;0.30;;;3.40;99.90;;;;;;4423539;32;20101;-56
2021/01/06 09:34:28;;;;;;;0.30;0.30;;;3.40;99.90;;;;;;4422421;32;20065;-57
2021/01/06 09:36:54;;;;;;;0.30;0.30;;;3.40;99.90;;;;;;4444020;32;20109;-55
2021/01/06 09:39:24;;;;;;;0.30;0.30;;;3.40;99.90;;;;;;4440957;32;20073;-57
2021/01/06 09:41:54;;;;;;;0.30;0.30;;;3.40;99.90;;;;;;4419508;32;20502;-57
2021/01/06 09:44:19;;;;;;;0.30;0.30;;;3.40;99.90;;;;;;4427489;32;20153;-57
2021/01/06 09:47:00;;;;;;;0.30;0.30;;;3.40;99.90;;;;;;4437859;32;20082;-57
2021/01/06 09:49:37;;;;;;;0.30;0.30;;;3.40;99.90;;;;;;4438553;32;20454;-59
2021/01/06 09:52:07;;;;;;;0.30;0.30;;;3.50;99.90;;;;;;4428401;32;20116;-59
2021/01/06 09:54:34;;;;;;;0.40;0.40;;;3.40;99.90;;;;;;4436055;32;20069;-60
2021/01/06 09:57:00;;;;;;;0.30;0.30;;;3.40;99.90;;;;;;4440319;32;20104;-59
2021/01/06 09:59:32;;;;;;;0.37;0.37;;;3.40;99.90;;;;;;4432324;32;20050;-60
2021/01/06 10:02:21;;;;;;;0.20;0.20;;;3.30;99.90;;;;;;4436672;32;20061;-60
2021/01/06 10:04:49;;;;;;;0.32;0.32;;;3.40;99.90;;;;;;4427988;32;20400;-59
2021/01/06 10:07:26;;;;;;;0.40;0.40;;;3.50;99.90;;;;;;4430953;32;20061;-60
2021/01/06 10:10:01;;;;;;;0.40;0.40;;;3.50;99.90;;;;;;4430386;32;20499;-59
2021/01/06 10:12:50;;;;;;;0.20;0.20;;;3.50;99.90;;;;;;4431598;32;20058;-59
2021/01/06 10:15:38;;;;;;;0.30;0.30;;;3.50;99.90;;;;;;4428380;32;20069;-60
2021/01/06 10:18:16;;;;;;;0.40;0.40;;;3.50;99.90;;;;;;4429499;32;20081;-60
2021/01/06 10:20:51;;;;;;;0.30;0.30;;;3.50;99.90;;;;;;4429064;32;20074;-59
2021/01/06 10:23:45;;;;;;;0.30;0.30;;;3.60;99.90;;;;;;4437448;32;20580;-59
2021/01/06 10:26:31;;;;;;;0.30;0.30;;;3.60;99.90;;;;;;4435732;32;20069;-59
2021/01/06 10:29:07;;;;;;;0.32;0.32;;;3.60;99.90;;;;;;4433277;32;20073;-59
2021/01/06 10:31:57;;;;;;;0.30;0.30;;;3.60;99.90;;;;;;4437105;32;20065;-59
2021/01/06 10:34:35;;;;;;;0.30;0.30;;;3.60;99.90;;;;;;4440163;32;20064;-60
2021/01/06 10:37:03;;;;;;;0.25;0.25;;;3.70;99.90;;;;;;4437366;32;20107;-60
2021/01/06 10:39:44;;;;;;;0.40;0.40;;;3.60;99.90;;;;;;4434691;32;20089;-60
2021/01/06 10:42:22;;;;;;;0.40;0.40;;;3.60;99.90;;;;;;4422359;32;20457;-60
2021/01/06 10:44:54;;;;;;;0.30;0.30;;;3.70;99.90;;;;;;4440744;32;20554;-56
2021/01/06 10:47:30;;;;;;;0.20;0.20;;;3.70;99.90;;;;;;4430452;32;20528;-57
2021/01/06 10:49:59;;;;;;;0.20;0.20;;;3.70;99.90;;;;;;4440309;32;20080;-56
2021/01/06 10:52:27;;;;;;;0.30;0.30;;;3.70;99.90;;;;;;4434482;32;20057;-56
2021/01/06 10:55:14;;;;;;;0.20;0.20;;;3.70;99.90;;;;;;4438878;32;20083;-56
2021/01/06 10:57:49;;;;;;;0.32;0.32;;;3.70;99.90;;;;;;4432320;32;20090;-58
2021/01/06 11:00:19;;;;;;;0.30;0.30;;;3.60;99.90;;;;;;4445654;32;20073;-58
2021/01/06 11:03:02;;;;;;;0.30;0.30;;;3.70;99.90;;;;;;4438446;32;20542;-59
2021/01/06 11:05:51;;;;;;;0.40;0.40;;;3.70;99.90;;;;;;4439080;32;20061;-55
2021/01/06 11:08:38;;;;;;;0.30;0.30;;;3.70;99.90;;;;;;4433935;32;20510;-60
2021/01/06 11:11:19;;;;;;;0.30;0.30;;;3.80;99.90;;;;;;4439571;32;20080;-59
2021/01/06 11:14:04;;;;;;;;;;;3.60;99.90;;;;;;4436041;32;20428;-57
2021/01/06 11:16:40;;;;;;;0.32;0.32;;;3.50;99.90;;;;;;4439325;32;19948;-59
2021/01/06 11:19:42;;;;;;;0.30;0.30;;;3.50;99.90;;;;;;4430926;32;20050;-58
2021/01/06 11:22:29;;;;;;;0.30;0.30;;;3.40;99.90;;;;;;4433101;32;20073;-59
2021/01/06 11:24:57;;;;;;;0.22;0.22;;;3.50;99.90;;;;;;4432263;32;20068;-57
2021/01/06 11:27:44;;;;;;;0.47;0.47;;;3.50;99.90;;;;;;4437846;32;20392;-57
2021/01/06 11:30:23;;;;;;;0.35;0.35;;;3.60;99.90;;;;;;4428389;32;20061;-59
2021/01/06 11:33:09;;;;;;;0.73;0.40;;;3.60;99.90;;;;;;4424645;32;20070;-58
2021/01/06 11:35:52;;;;;;;0.30;0.30;;;3.70;99.90;;;;;;4424358;32;20072;-59
2021/01/06 11:38:39;;;;;;;0.30;0.30;;;3.60;99.90;;;;;;4433176;32;20078;-59
2021/01/06 11:41:08;;;;;;;0.30;0.30;;;3.60;99.90;;;;;;4433543;32;20081;-59
2021/01/06 11:43:46;;;;;;;0.30;0.30;;;3.70;99.90;;;;;;4431081;32;20062;-59
2021/01/06 11:46:33;;;;;;;0.47;0.47;;;3.70;99.90;;;;;;4435999;32;20120;-59
2021/01/06 11:49:37;;;;;;;0.30;0.30;;;3.60;99.90;;;;;;4433147;32;20052;-57
2021/01/06 11:52:25;;;;;;;0.30;0.30;;;3.60;99.90;;;;;;4436167;32;20065;-58
2021/01/06 11:55:10;;;;;;;0.50;0.50;;;3.50;99.90;;;;;;4430258;32;20111;-58
2021/01/06 11:58:15;;;;;;;0.30;0.30;;;3.50;99.90;;;;;;4432849;32;20361;-59
2021/01/06 12:00:44;;;;;;;0.40;0.40;;;3.50;99.90;;;;;;4428555;32;20065;-58
2021/01/06 12:03:24;;;;;;;0.52;0.52;;;3.50;99.90;;;;;;4439341;32;20086;-54
2021/01/06 12:06:29;;;;;;;0.30;0.30;;;3.40;99.90;;;;;;4442865;32;20150;-57
2021/01/06 12:09:24;;;;;;;0.40;0.40;;;3.50;99.90;;;;;;4436651;32;20068;-59
2021/01/06 12:12:14;;;;;;;0.30;0.30;;;3.50;99.90;;;;;;4433985;32;20498;-59
2021/01/06 12:14:56;;;;;;;0.30;0.30;;;3.60;99.90;;;;;;4440433;32;20081;-59
2021/01/06 12:17:29;;;;;;;0.30;0.30;;;3.60;99.90;;;;;;4425734;32;20131;-58
2021/01/06 12:20:16;;;;;;;0.30;0.30;;;3.50;99.90;;;;;;4433686;32;20517;-58
2021/01/06 12:22:41;;;;;;;0.95;0.95;;;3.40;99.90;;;;;;4431658;32;20073;-59
2021/01/06 12:25:28;;;;;;;0.35;0.35;;;3.50;99.90;;;;;;4431894;32;20082;-57
2021/01/06 12:28:02;;;;;;;0.32;0.32;;;3.50;99.90;;;;;;4431251;32;20086;-59
2021/01/06 12:30:40;;;;;;;0.30;0.30;;;3.60;99.90;;;;;;4434230;32;20084;-55
2021/01/06 12:33:31;;;;;;;0.47;0.47;;;3.60;99.90;;;;;;4439714;32;21185;-56
2021/01/06 12:36:10;;;;;;;0.30;0.30;;;3.40;99.90;;;;;;4424699;32;20061;-59
2021/01/06 12:38:36;;;;;;;0.30;0.30;;;3.50;99.90;;;;;;4429062;32;20518;-58
2021/01/06 12:41:04;;;;;;;0.32;0.32;;;3.50;99.90;;;;;;4418878;32;20062;-60
2021/01/06 12:43:52;;;;;;;0.30;0.30;;;3.60;99.90;;;;;;4420145;32;20078;-59
2021/01/06 12:46:39;;;;;;;0.30;0.30;;;3.70;99.90;;;;;;4421271;32;20427;-58
2021/01/06 12:49:24;;;;;;;0.32;0.32;;;3.70;99.90;;;;;;4415116;32;20066;-61
2021/01/06 12:52:11;;;;;;;0.20;0.20;;;3.60;99.90;;;;;;4423610;32;20081;-59
2021/01/06 12:54:41;;;;;;;0.40;0.40;;;3.60;99.90;;;;;;4424891;32;20056;-61
2021/01/06 12:57:15;;;;;;;0.40;0.40;;;3.70;99.90;;;;;;4419646;32;20132;-60
2021/01/06 12:59:49;;;;;;;0.30;0.30;;;3.60;99.90;;;;;;4415067;32;20179;-60
2021/01/06 13:02:26;;;;;;;0.30;0.30;;;3.60;99.90;;;;;;4416955;32;20065;-59
2021/01/06 13:04:53;;;;;;;0.20;0.20;;;3.50;99.90;;;;;;4415726;32;20041;-58
2021/01/06 13:07:26;;;;;;;0.30;0.30;;;3.50;99.90;;;;;;4411984;32;20673;-59
2021/01/06 13:09:56;;;;;;;0.30;0.30;;;3.50;99.90;;;;;;4412938;32;20046;-58
2021/01/06 13:12:34;;;;;;;0.20;0.20;;;3.50;99.90;;;;;;4426118;32;20049;-56
2021/01/06 13:15:24;;;;;;;0.40;0.40;;;3.50;99.90;;;;;;4427006;32;20489;-59
2021/01/06 13:18:00;;;;;;;0.40;0.40;;;3.50;99.90;;;;;;4421658;32;20710;-57
2021/01/06 13:20:58;;;;;;;0.30;0.30;;;3.50;99.90;;;;;;4429358;32;20162;-60
2021/01/06 13:23:44;;;;;;;0.30;0.30;;;3.50;99.90;;;;;;4430285;32;20127;-60
2021/01/06 13:26:19;;;;;;;0.30;0.30;;;3.30;99.90;;;;;;4430809;32;20353;-60
2021/01/06 13:29:05;;;;;;;0.30;0.30;;;3.20;99.90;;;;;;4431012;32;20094;-60
2021/01/06 13:31:34;;;;;;;0.50;0.50;;;3.20;99.90;;;;;;4428920;32;20128;-55
2021/01/06 13:34:29;;;;;;;0.30;0.30;;;3.30;99.90;;;;;;4416644;32;20166;-59
2021/01/06 13:37:12;;;;;;;0.30;0.30;;;3.30;99.90;;;;;;4407328;32;20170;-59